KAKO/AKO METAR and TAF weather

Enter ICAO airport designator
Station Type Date Time Source
KAKO METAR 2022/12/04 10:53 UTC NOAA

KAKO 041053Z AUTO 27008KT 10SM FEW110 M03/M10 A3018 RMK AO2 SLP240 T10331100 $


Station Type Date Time Source
KAKO Decoded METAR 2022/12/04 10:53 UTC NOAA

COLORADO PLAINS REGIONAL, CO, United States (KAKO) 40-10N 103-13W 1421M
Dec 04, 2022 - 05:53 AM EST / 2022.12.04 1053 UTC
Wind: from the W (270 degrees) at 9 MPH (8 KT):0
Visibility: 10 mile(s):0
Sky conditions: mostly clear
Temperature: 26.1 F (-3.3 C)
Windchill: 17 F (-8 C):1
Dew Point: 14.0 F (-10.0 C)
Relative Humidity: 59%
Pressure (altimeter): 30.18 in. Hg (1022 hPa)
ob: KAKO 041053Z AUTO 27008KT 10SM FEW110 M03/M10 A3018 RMK AO2 SLP240 T10331100
cycle: 11

Station Type Date Time Source
KAKO TAF UTC NOAA

Error!

Example: see airport list